Etusivu
METAR-TAF:

METAR-TAF

Lentoasemat :

Kärdla, Viro

Kärdlan lentoasema

Leveyspiiri: 58-59N, Pituuspiiri: 022-49E, korkeus merenpinnasta: 5 m

Tämänhetkinen sää

Tämä raportti tehtiin 2 tuntia ja 13 minuuttia sitten, kello 15.50 UTC
Tuuli 7 kn pohjoisesta
Lämpötila -5°C
Kosteus 86%
Ilmanpaine 1026 hPa
Näkyvyys: 7000 m
Pilvistä 1300 ft:n korkeudessa
(heikkoa) lumijyväsiä

METAR: EEKA 191550Z 35007KT 7000 -SG OVC013 M05/M07 Q1026

Aika: 20:03 (18:03 UTC)

Sääennuste

Tämä raportti tehtiin 5 tuntia ja 3 minuuttia sitten, kello 13.00 UTC
Ennuste voimassa 19. päivästä klo 14 UTC - 19. päivään klo 20 UTC
Tuuli 8 kn pohjoisesta/koillisesta
Näkyvyys 10 km tai enemmän
Hajonneita pilviä 1500 ft:n korkeudessa
Todennäköisyys 40% :
Ajoittain
19. päivästä klo 14 UTC - 19. päivään klo 20 UTC
Näkyvyys: 4000 m
Hajonneita pilviä 700 ft:n korkeudessa
lumisadetta

TAF: EEKA 191300Z 1914/1920 02008KT 9999 BKN015 PROB40 TEMPO 1914/1920 4000 SN BKN007

Säähavainnot ja -ennusteet yli 4000 lentoasemalta (METAR- ja TAF-raportit).

Käytössä olevat sääasemat on merkitty karttaan keltaisilla ja punaisilla pisteillä.

Aseta hiiri pisteen päälle nähdäksesi sääaseman nimen.

Klikkaa sitten nähdäksesi säähavainnot ja -ennusteet.

Kartan vaihtaminen: klikkaa mustalla rastilla varustettuja vihreitä pisteitä, niin voit zoomata sisään; viivalla varustettua vihreää pistettä, niin voit zoomata ulos tai vihreitä nuolia, niin pääset viereisille kartoille.


METAR-TAF: